sensor_id;sensor_type;location;lat;lon;timestamp;P1;durP1;ratioP1;P2;durP2;ratioP2
6007;SDS011;3032;49.484;11.112;2022-07-10T00:02:11;7.80;;;6.90;;
6007;SDS011;3032;49.484;11.112;2022-07-10T00:04:37;8.47;;;7.77;;
6007;SDS011;3032;49.484;11.112;2022-07-10T00:07:02;8.50;;;7.70;;
6007;SDS011;3032;49.484;11.112;2022-07-10T00:09:28;8.77;;;8.07;;
6007;SDS011;3032;49.484;11.112;2022-07-10T00:11:54;8.60;;;7.90;;
6007;SDS011;3032;49.484;11.112;2022-07-10T00:14:20;8.23;;;7.30;;
6007;SDS011;3032;49.484;11.112;2022-07-10T00:16:45;8.07;;;7.47;;
6007;SDS011;3032;49.484;11.112;2022-07-10T00:19:11;8.13;;;7.43;;
6007;SDS011;3032;49.484;11.112;2022-07-10T00:21:37;9.90;;;8.90;;
6007;SDS011;3032;49.484;11.112;2022-07-10T00:24:03;8.70;;;7.87;;
6007;SDS011;3032;49.484;11.112;2022-07-10T00:26:29;9.20;;;8.20;;
6007;SDS011;3032;49.484;11.112;2022-07-10T00:28:54;8.03;;;7.40;;
6007;SDS011;3032;49.484;11.112;2022-07-10T00:31:20;9.30;;;8.50;;
6007;SDS011;3032;49.484;11.112;2022-07-10T00:33:46;7.82;;;7.22;;
6007;SDS011;3032;49.484;11.112;2022-07-10T00:36:13;8.48;;;7.80;;
6007;SDS011;3032;49.484;11.112;2022-07-10T00:38:39;8.67;;;7.87;;
6007;SDS011;3032;49.484;11.112;2022-07-10T00:41:05;8.65;;;7.75;;
6007;SDS011;3032;49.484;11.112;2022-07-10T00:43:50;8.70;;;7.90;;
6007;SDS011;3032;49.484;11.112;2022-07-10T00:46:20;8.98;;;8.18;;
6007;SDS011;3032;49.484;11.112;2022-07-10T00:48:48;9.63;;;8.17;;
6007;SDS011;3032;49.484;11.112;2022-07-10T00:51:15;8.50;;;7.80;;
6007;SDS011;3032;49.484;11.112;2022-07-10T00:53:46;9.70;;;8.77;;
6007;SDS011;3032;49.484;11.112;2022-07-10T00:56:15;9.57;;;8.35;;
6007;SDS011;3032;49.484;11.112;2022-07-10T00:58:43;10.35;;;8.73;;
6007;SDS011;3032;49.484;11.112;2022-07-10T01:01:10;9.43;;;8.68;;
6007;SDS011;3032;49.484;11.112;2022-07-10T01:03:35;9.40;;;8.60;;
6007;SDS011;3032;49.484;11.112;2022-07-10T01:06:01;9.47;;;8.60;;
6007;SDS011;3032;49.484;11.112;2022-07-10T01:08:27;10.70;;;9.70;;
6007;SDS011;3032;49.484;11.112;2022-07-10T01:10:53;10.97;;;9.77;;
6007;SDS011;3032;49.484;11.112;2022-07-10T01:13:19;10.87;;;9.73;;
6007;SDS011;3032;49.484;11.112;2022-07-10T01:15:45;11.47;;;10.47;;
6007;SDS011;3032;49.484;11.112;2022-07-10T01:18:11;13.18;;;10.30;;
6007;SDS011;3032;49.484;11.112;2022-07-10T01:20:37;9.57;;;8.77;;
6007;SDS011;3032;49.484;11.112;2022-07-10T01:23:03;11.53;;;10.57;;
6007;SDS011;3032;49.484;11.112;2022-07-10T01:25:29;11.57;;;10.47;;
6007;SDS011;3032;49.484;11.112;2022-07-10T01:27:54;12.37;;;11.07;;
6007;SDS011;3032;49.484;11.112;2022-07-10T01:30:20;11.87;;;10.70;;
6007;SDS011;3032;49.484;11.112;2022-07-10T01:32:46;11.63;;;10.60;;
6007;SDS011;3032;49.484;11.112;2022-07-10T01:35:12;11.57;;;9.55;;
6007;SDS011;3032;49.484;11.112;2022-07-10T01:37:38;11.95;;;10.88;;
6007;SDS011;3032;49.484;11.112;2022-07-10T01:40:05;11.55;;;10.55;;
6007;SDS011;3032;49.484;11.112;2022-07-10T01:42:31;11.80;;;10.70;;
6007;SDS011;3032;49.484;11.112;2022-07-10T01:44:57;14.37;;;10.53;;
6007;SDS011;3032;49.484;11.112;2022-07-10T01:47:23;11.10;;;10.20;;
6007;SDS011;3032;49.484;11.112;2022-07-10T01:49:50;12.40;;;11.25;;
6007;SDS011;3032;49.484;11.112;2022-07-10T01:52:17;12.93;;;11.75;;
6007;SDS011;3032;49.484;11.112;2022-07-10T01:54:43;12.37;;;11.20;;
6007;SDS011;3032;49.484;11.112;2022-07-10T01:57:09;12.10;;;11.00;;
6007;SDS011;3032;49.484;11.112;2022-07-10T01:59:34;13.13;;;11.87;;
6007;SDS011;3032;49.484;11.112;2022-07-10T02:02:00;12.73;;;11.40;;
6007;SDS011;3032;49.484;11.112;2022-07-10T02:04:25;11.90;;;10.90;;
6007;SDS011;3032;49.484;11.112;2022-07-10T02:07:06;12.15;;;11.05;;
6007;SDS011;3032;49.484;11.112;2022-07-10T02:09:36;10.65;;;9.70;;
6007;SDS011;3032;49.484;11.112;2022-07-10T02:12:02;13.07;;;10.90;;
6007;SDS011;3032;49.484;11.112;2022-07-10T02:14:28;10.70;;;9.80;;
6007;SDS011;3032;49.484;11.112;2022-07-10T02:16:54;10.70;;;9.80;;
6007;SDS011;3032;49.484;11.112;2022-07-10T02:19:20;11.95;;;9.65;;
6007;SDS011;3032;49.484;11.112;2022-07-10T02:21:46;11.20;;;10.20;;
6007;SDS011;3032;49.484;11.112;2022-07-10T02:24:11;10.57;;;9.70;;
6007;SDS011;3032;49.484;11.112;2022-07-10T02:26:37;9.87;;;9.03;;
6007;SDS011;3032;49.484;11.112;2022-07-10T02:29:02;8.70;;;8.00;;
6007;SDS011;3032;49.484;11.112;2022-07-10T02:31:28;9.30;;;8.60;;
6007;SDS011;3032;49.484;11.112;2022-07-10T02:33:54;10.00;;;9.20;;
6007;SDS011;3032;49.484;11.112;2022-07-10T02:36:19;9.67;;;8.80;;
6007;SDS011;3032;49.484;11.112;2022-07-10T02:38:45;10.37;;;9.47;;
6007;SDS011;3032;49.484;11.112;2022-07-10T02:41:11;8.13;;;7.50;;
6007;SDS011;3032;49.484;11.112;2022-07-10T02:43:36;8.90;;;8.03;;
6007;SDS011;3032;49.484;11.112;2022-07-10T02:46:02;8.73;;;7.30;;
6007;SDS011;3032;49.484;11.112;2022-07-10T02:48:28;8.13;;;7.00;;
6007;SDS011;3032;49.484;11.112;2022-07-10T02:50:54;8.27;;;7.57;;
6007;SDS011;3032;49.484;11.112;2022-07-10T02:53:19;8.37;;;7.33;;
6007;SDS011;3032;49.484;11.112;2022-07-10T02:55:45;12.67;;;6.83;;
6007;SDS011;3032;49.484;11.112;2022-07-10T02:58:10;7.57;;;6.90;;
6007;SDS011;3032;49.484;11.112;2022-07-10T03:00:36;7.73;;;7.03;;
6007;SDS011;3032;49.484;11.112;2022-07-10T03:03:02;6.82;;;6.10;;
6007;SDS011;3032;49.484;11.112;2022-07-10T03:05:28;5.90;;;5.43;;
6007;SDS011;3032;49.484;11.112;2022-07-10T03:07:53;6.00;;;5.50;;
6007;SDS011;3032;49.484;11.112;2022-07-10T03:10:19;6.85;;;6.15;;
6007;SDS011;3032;49.484;11.112;2022-07-10T03:12:45;7.17;;;5.47;;
6007;SDS011;3032;49.484;11.112;2022-07-10T03:15:12;5.00;;;4.70;;
6007;SDS011;3032;49.484;11.112;2022-07-10T03:17:38;5.07;;;4.63;;
6007;SDS011;3032;49.484;11.112;2022-07-10T03:20:05;4.83;;;4.43;;
6007;SDS011;3032;49.484;11.112;2022-07-10T03:22:31;4.95;;;4.45;;
6007;SDS011;3032;49.484;11.112;2022-07-10T03:24:57;4.47;;;4.07;;
6007;SDS011;3032;49.484;11.112;2022-07-10T03:27:23;4.60;;;4.30;;
6007;SDS011;3032;49.484;11.112;2022-07-10T03:29:49;4.37;;;3.53;;
6007;SDS011;3032;49.484;11.112;2022-07-10T03:32:14;4.33;;;3.60;;
6007;SDS011;3032;49.484;11.112;2022-07-10T03:34:40;4.10;;;3.70;;
6007;SDS011;3032;49.484;11.112;2022-07-10T03:37:06;5.00;;;3.60;;
6007;SDS011;3032;49.484;11.112;2022-07-10T03:39:31;7.97;;;3.30;;
6007;SDS011;3032;49.484;11.112;2022-07-10T03:41:57;9.97;;;3.80;;
6007;SDS011;3032;49.484;11.112;2022-07-10T03:44:22;5.83;;;3.83;;
6007;SDS011;3032;49.484;11.112;2022-07-10T03:46:48;4.10;;;3.03;;
6007;SDS011;3032;49.484;11.112;2022-07-10T03:49:14;5.23;;;2.67;;
6007;SDS011;3032;49.484;11.112;2022-07-10T03:51:39;3.70;;;2.90;;
6007;SDS011;3032;49.484;11.112;2022-07-10T03:54:05;3.25;;;3.05;;
6007;SDS011;3032;49.484;11.112;2022-07-10T03:56:31;5.73;;;2.87;;
6007;SDS011;3032;49.484;11.112;2022-07-10T03:59:15;6.03;;;2.97;;
6007;SDS011;3032;49.484;11.112;2022-07-10T04:01:40;7.97;;;3.23;;
6007;SDS011;3032;49.484;11.112;2022-07-10T04:04:06;7.17;;;3.10;;
6007;SDS011;3032;49.484;11.112;2022-07-10T04:06:32;8.63;;;2.90;;
6007;SDS011;3032;49.484;11.112;2022-07-10T04:08:57;3.73;;;2.80;;
6007;SDS011;3032;49.484;11.112;2022-07-10T04:11:23;3.57;;;2.90;;
6007;SDS011;3032;49.484;11.112;2022-07-10T04:13:48;7.70;;;3.10;;
6007;SDS011;3032;49.484;11.112;2022-07-10T04:16:14;3.13;;;2.80;;
6007;SDS011;3032;49.484;11.112;2022-07-10T04:18:39;4.50;;;2.80;;
6007;SDS011;3032;49.484;11.112;2022-07-10T04:21:05;3.20;;;2.60;;
6007;SDS011;3032;49.484;11.112;2022-07-10T04:23:33;4.43;;;2.83;;
6007;SDS011;3032;49.484;11.112;2022-07-10T04:25:59;5.30;;;2.88;;
6007;SDS011;3032;49.484;11.112;2022-07-10T04:28:25;4.82;;;3.20;;
6007;SDS011;3032;49.484;11.112;2022-07-10T04:30:51;3.50;;;2.93;;
6007;SDS011;3032;49.484;11.112;2022-07-10T04:33:17;4.33;;;3.43;;
6007;SDS011;3032;49.484;11.112;2022-07-10T04:35:43;9.50;;;3.27;;
6007;SDS011;3032;49.484;11.112;2022-07-10T04:38:08;3.63;;;3.23;;
6007;SDS011;3032;49.484;11.112;2022-07-10T04:40:34;4.60;;;3.10;;
6007;SDS011;3032;49.484;11.112;2022-07-10T04:42:59;5.90;;;2.90;;
6007;SDS011;3032;49.484;11.112;2022-07-10T04:45:25;6.10;;;2.80;;
6007;SDS011;3032;49.484;11.112;2022-07-10T04:47:51;2.87;;;2.57;;
6007;SDS011;3032;49.484;11.112;2022-07-10T04:50:17;6.27;;;3.00;;
6007;SDS011;3032;49.484;11.112;2022-07-10T04:52:42;4.37;;;2.43;;
6007;SDS011;3032;49.484;11.112;2022-07-10T04:55:08;3.77;;;2.40;;
6007;SDS011;3032;49.484;11.112;2022-07-10T04:57:34;3.13;;;2.10;;
6007;SDS011;3032;49.484;11.112;2022-07-10T05:00:00;3.80;;;2.07;;
6007;SDS011;3032;49.484;11.112;2022-07-10T05:02:26;3.55;;;1.77;;
6007;SDS011;3032;49.484;11.112;2022-07-10T05:04:52;4.63;;;1.80;;
6007;SDS011;3032;49.484;11.112;2022-07-10T05:07:17;7.27;;;1.70;;
6007;SDS011;3032;49.484;11.112;2022-07-10T05:09:43;2.60;;;1.50;;
6007;SDS011;3032;49.484;11.112;2022-07-10T05:12:09;7.70;;;1.60;;
6007;SDS011;3032;49.484;11.112;2022-07-10T05:14:34;3.35;;;1.30;;
6007;SDS011;3032;49.484;11.112;2022-07-10T05:17:00;1.47;;;1.37;;
6007;SDS011;3032;49.484;11.112;2022-07-10T05:19:26;2.37;;;1.43;;
6007;SDS011;3032;49.484;11.112;2022-07-10T05:21:51;8.57;;;1.57;;
6007;SDS011;3032;49.484;11.112;2022-07-10T05:24:17;3.60;;;1.60;;
6007;SDS011;3032;49.484;11.112;2022-07-10T05:26:42;3.27;;;1.30;;
6007;SDS011;3032;49.484;11.112;2022-07-10T05:29:08;2.10;;;1.30;;
6007;SDS011;3032;49.484;11.112;2022-07-10T05:31:33;3.93;;;1.50;;
6007;SDS011;3032;49.484;11.112;2022-07-10T05:33:59;2.87;;;1.40;;
6007;SDS011;3032;49.484;11.112;2022-07-10T05:36:25;2.20;;;1.60;;
6007;SDS011;3032;49.484;11.112;2022-07-10T05:38:50;2.37;;;1.47;;
6007;SDS011;3032;49.484;11.112;2022-07-10T05:41:16;1.47;;;1.37;;
6007;SDS011;3032;49.484;11.112;2022-07-10T05:43:41;1.57;;;1.10;;
6007;SDS011;3032;49.484;11.112;2022-07-10T05:46:07;3.07;;;1.43;;
6007;SDS011;3032;49.484;11.112;2022-07-10T05:48:33;2.80;;;1.20;;
6007;SDS011;3032;49.484;11.112;2022-07-10T05:50:58;1.40;;;1.27;;
6007;SDS011;3032;49.484;11.112;2022-07-10T05:53:24;2.50;;;1.40;;
6007;SDS011;3032;49.484;11.112;2022-07-10T05:55:49;2.07;;;1.27;;
6007;SDS011;3032;49.484;11.112;2022-07-10T05:58:15;2.23;;;1.27;;
6007;SDS011;3032;49.484;11.112;2022-07-10T06:00:41;1.80;;;1.20;;
6007;SDS011;3032;49.484;11.112;2022-07-10T06:03:10;3.55;;;1.60;;
6007;SDS011;3032;49.484;11.112;2022-07-10T06:05:37;1.42;;;1.20;;
6007;SDS011;3032;49.484;11.112;2022-07-10T06:08:03;2.65;;;1.00;;
6007;SDS011;3032;49.484;11.112;2022-07-10T06:10:29;3.60;;;1.40;;
6007;SDS011;3032;49.484;11.112;2022-07-10T06:12:54;2.17;;;1.20;;
6007;SDS011;3032;49.484;11.112;2022-07-10T06:15:20;4.13;;;1.40;;
6007;SDS011;3032;49.484;11.112;2022-07-10T06:17:46;3.07;;;1.43;;
6007;SDS011;3032;49.484;11.112;2022-07-10T06:20:11;2.33;;;1.20;;
6007;SDS011;3032;49.484;11.112;2022-07-10T06:22:37;1.70;;;1.40;;
6007;SDS011;3032;49.484;11.112;2022-07-10T06:25:05;1.52;;;1.15;;
6007;SDS011;3032;49.484;11.112;2022-07-10T06:27:32;3.60;;;1.35;;
6007;SDS011;3032;49.484;11.112;2022-07-10T06:29:58;1.77;;;1.65;;
6007;SDS011;3032;49.484;11.112;2022-07-10T06:32:24;4.10;;;1.10;;
6007;SDS011;3032;49.484;11.112;2022-07-10T06:34:53;4.05;;;1.45;;
6007;SDS011;3032;49.484;11.112;2022-07-10T06:37:20;1.55;;;1.15;;
6007;SDS011;3032;49.484;11.112;2022-07-10T06:39:46;2.97;;;1.20;;
6007;SDS011;3032;49.484;11.112;2022-07-10T06:42:13;3.60;;;1.20;;
6007;SDS011;3032;49.484;11.112;2022-07-10T06:44:38;1.60;;;1.30;;
6007;SDS011;3032;49.484;11.112;2022-07-10T06:47:05;1.40;;;1.30;;
6007;SDS011;3032;49.484;11.112;2022-07-10T06:49:50;2.33;;;1.20;;
6007;SDS011;3032;49.484;11.112;2022-07-10T06:52:16;2.33;;;1.30;;
6007;SDS011;3032;49.484;11.112;2022-07-10T06:54:42;2.10;;;1.10;;
6007;SDS011;3032;49.484;11.112;2022-07-10T06:57:08;1.23;;;0.90;;
6007;SDS011;3032;49.484;11.112;2022-07-10T06:59:34;1.83;;;1.13;;
6007;SDS011;3032;49.484;11.112;2022-07-10T07:02:00;2.40;;;1.20;;
6007;SDS011;3032;49.484;11.112;2022-07-10T07:04:25;4.60;;;1.37;;
6007;SDS011;3032;49.484;11.112;2022-07-10T07:06:51;3.63;;;1.27;;
6007;SDS011;3032;49.484;11.112;2022-07-10T07:09:16;5.00;;;1.10;;
6007;SDS011;3032;49.484;11.112;2022-07-10T07:11:42;4.83;;;1.57;;
6007;SDS011;3032;49.484;11.112;2022-07-10T07:14:08;3.43;;;1.30;;
6007;SDS011;3032;49.484;11.112;2022-07-10T07:16:33;4.23;;;1.17;;
6007;SDS011;3032;49.484;11.112;2022-07-10T07:19:10;2.30;;;1.40;;
6007;SDS011;3032;49.484;11.112;2022-07-10T07:21:36;2.25;;;1.50;;
6007;SDS011;3032;49.484;11.112;2022-07-10T07:24:21;2.33;;;1.20;;
6007;SDS011;3032;49.484;11.112;2022-07-10T07:26:47;2.07;;;1.40;;
6007;SDS011;3032;49.484;11.112;2022-07-10T07:29:16;2.13;;;1.25;;
6007;SDS011;3032;49.484;11.112;2022-07-10T07:31:42;4.28;;;1.17;;
6007;SDS011;3032;49.484;11.112;2022-07-10T07:34:08;1.83;;;1.30;;
6007;SDS011;3032;49.484;11.112;2022-07-10T07:36:33;1.77;;;1.37;;
6007;SDS011;3032;49.484;11.112;2022-07-10T07:38:59;1.70;;;1.00;;
6007;SDS011;3032;49.484;11.112;2022-07-10T07:41:25;1.63;;;1.20;;
6007;SDS011;3032;49.484;11.112;2022-07-10T07:43:50;3.00;;;0.93;;
6007;SDS011;3032;49.484;11.112;2022-07-10T07:46:17;2.90;;;1.17;;
6007;SDS011;3032;49.484;11.112;2022-07-10T07:48:43;1.17;;;0.90;;
6007;SDS011;3032;49.484;11.112;2022-07-10T07:51:08;1.33;;;0.90;;
6007;SDS011;3032;49.484;11.112;2022-07-10T07:53:34;0.90;;;0.90;;
6007;SDS011;3032;49.484;11.112;2022-07-10T07:56:00;0.90;;;0.80;;
6007;SDS011;3032;49.484;11.112;2022-07-10T07:58:25;1.30;;;1.00;;
6007;SDS011;3032;49.484;11.112;2022-07-10T08:00:51;1.33;;;0.83;;
6007;SDS011;3032;49.484;11.112;2022-07-10T08:03:17;1.00;;;0.80;;
6007;SDS011;3032;49.484;11.112;2022-07-10T08:05:43;2.73;;;0.80;;
6007;SDS011;3032;49.484;11.112;2022-07-10T08:08:08;1.13;;;0.80;;
6007;SDS011;3032;49.484;11.112;2022-07-10T08:10:35;1.70;;;0.88;;
6007;SDS011;3032;49.484;11.112;2022-07-10T08:13:02;3.40;;;0.90;;
6007;SDS011;3032;49.484;11.112;2022-07-10T08:15:28;3.08;;;1.33;;
6007;SDS011;3032;49.484;11.112;2022-07-10T08:17:54;1.10;;;1.00;;
6007;SDS011;3032;49.484;11.112;2022-07-10T08:20:22;1.70;;;1.25;;
6007;SDS011;3032;49.484;11.112;2022-07-10T08:22:48;1.58;;;1.13;;
6007;SDS011;3032;49.484;11.112;2022-07-10T08:25:14;1.80;;;0.90;;
6007;SDS011;3032;49.484;11.112;2022-07-10T08:27:40;1.17;;;0.70;;
6007;SDS011;3032;49.484;11.112;2022-07-10T08:30:06;1.17;;;0.83;;
6007;SDS011;3032;49.484;11.112;2022-07-10T08:32:34;2.55;;;1.10;;
6007;SDS011;3032;49.484;11.112;2022-07-10T08:35:00;2.35;;;0.90;;
6007;SDS011;3032;49.484;11.112;2022-07-10T08:37:26;3.73;;;0.90;;
6007;SDS011;3032;49.484;11.112;2022-07-10T08:39:52;2.93;;;1.07;;
6007;SDS011;3032;49.484;11.112;2022-07-10T08:42:17;1.97;;;0.70;;
6007;SDS011;3032;49.484;11.112;2022-07-10T08:44:44;1.30;;;0.77;;
6007;SDS011;3032;49.484;11.112;2022-07-10T08:47:10;0.73;;;0.73;;
6007;SDS011;3032;49.484;11.112;2022-07-10T08:49:38;1.55;;;0.90;;
6007;SDS011;3032;49.484;11.112;2022-07-10T08:52:33;5.65;;;1.00;;
6007;SDS011;3032;49.484;11.112;2022-07-10T08:55:11;1.10;;;0.70;;
6007;SDS011;3032;49.484;11.112;2022-07-10T08:57:41;3.03;;;1.00;;
6007;SDS011;3032;49.484;11.112;2022-07-10T09:00:09;3.05;;;1.00;;
6007;SDS011;3032;49.484;11.112;2022-07-10T09:02:36;1.88;;;0.80;;
6007;SDS011;3032;49.484;11.112;2022-07-10T09:05:01;1.77;;;0.87;;
6007;SDS011;3032;49.484;11.112;2022-07-10T09:07:34;1.40;;;1.10;;
6007;SDS011;3032;49.484;11.112;2022-07-10T09:10:04;2.35;;;0.90;;
6007;SDS011;3032;49.484;11.112;2022-07-10T09:15:27;3.40;;;0.98;;
6007;SDS011;3032;49.484;11.112;2022-07-10T09:18:04;1.83;;;1.40;;
6007;SDS011;3032;49.484;11.112;2022-07-10T09:20:36;1.30;;;0.70;;
6007;SDS011;3032;49.484;11.112;2022-07-10T09:23:24;2.75;;;0.70;;
6007;SDS011;3032;49.484;11.112;2022-07-10T09:25:50;1.45;;;0.88;;
6007;SDS011;3032;49.484;11.112;2022-07-10T09:28:18;1.65;;;0.82;;
6007;SDS011;3032;49.484;11.112;2022-07-10T09:30:48;2.78;;;0.80;;
6007;SDS011;3032;49.484;11.112;2022-07-10T09:33:21;0.70;;;0.70;;
6007;SDS011;3032;49.484;11.112;2022-07-10T09:36:09;0.60;;;0.60;;
6007;SDS011;3032;49.484;11.112;2022-07-10T09:41:49;0.73;;;0.70;;
6007;SDS011;3032;49.484;11.112;2022-07-10T09:44:01;0.70;;;0.70;;
6007;SDS011;3032;49.484;11.112;2022-07-10T09:46:35;0.82;;;0.65;;
6007;SDS011;3032;49.484;11.112;2022-07-10T09:51:31;1.15;;;0.70;;
6007;SDS011;3032;49.484;11.112;2022-07-10T09:54:08;1.92;;;0.80;;
6007;SDS011;3032;49.484;11.112;2022-07-10T09:56:48;0.80;;;0.60;;
6007;SDS011;3032;49.484;11.112;2022-07-10T09:59:19;1.90;;;0.70;;
6007;SDS011;3032;49.484;11.112;2022-07-10T10:01:49;1.10;;;0.70;;
6007;SDS011;3032;49.484;11.112;2022-07-10T10:04:18;1.20;;;0.90;;
6007;SDS011;3032;49.484;11.112;2022-07-10T10:06:46;1.40;;;0.70;;
6007;SDS011;3032;49.484;11.112;2022-07-10T10:09:21;0.98;;;0.70;;
6007;SDS011;3032;49.484;11.112;2022-07-10T10:12:07;2.45;;;0.88;;
6007;SDS011;3032;49.484;11.112;2022-07-10T10:14:41;1.27;;;1.00;;
6007;SDS011;3032;49.484;11.112;2022-07-10T10:17:06;1.00;;;0.83;;
6007;SDS011;3032;49.484;11.112;2022-07-10T10:19:33;4.00;;;0.90;;
6007;SDS011;3032;49.484;11.112;2022-07-10T10:22:18;1.45;;;0.85;;
6007;SDS011;3032;49.484;11.112;2022-07-10T10:24:44;1.42;;;0.93;;
6007;SDS011;3032;49.484;11.112;2022-07-10T10:27:11;0.82;;;0.70;;
6007;SDS011;3032;49.484;11.112;2022-07-10T10:29:38;1.38;;;0.70;;
6007;SDS011;3032;49.484;11.112;2022-07-10T10:32:06;1.13;;;0.80;;
6007;SDS011;3032;49.484;11.112;2022-07-10T10:34:42;2.30;;;0.73;;
6007;SDS011;3032;49.484;11.112;2022-07-10T10:37:32;1.15;;;0.80;;
6007;SDS011;3032;49.484;11.112;2022-07-10T10:40:01;3.95;;;0.93;;
6007;SDS011;3032;49.484;11.112;2022-07-10T10:42:34;1.15;;;0.85;;
6007;SDS011;3032;49.484;11.112;2022-07-10T10:48:10;2.17;;;0.80;;
6007;SDS011;3032;49.484;11.112;2022-07-10T10:50:50;2.20;;;1.50;;
6007;SDS011;3032;49.484;11.112;2022-07-10T10:53:20;2.00;;;1.10;;
6007;SDS011;3032;49.484;11.112;2022-07-10T10:58:44;4.30;;;0.90;;
6007;SDS011;3032;49.484;11.112;2022-07-10T11:04:12;1.95;;;1.05;;
6007;SDS011;3032;49.484;11.112;2022-07-10T11:07:10;1.15;;;0.93;;
6007;SDS011;3032;49.484;11.112;2022-07-10T11:09:32;1.13;;;0.73;;
6007;SDS011;3032;49.484;11.112;2022-07-10T11:12:02;1.33;;;1.05;;
6007;SDS011;3032;49.484;11.112;2022-07-10T11:14:35;4.03;;;1.25;;
6007;SDS011;3032;49.484;11.112;2022-07-10T11:17:02;3.95;;;1.13;;
6007;SDS011;3032;49.484;11.112;2022-07-10T11:19:29;1.27;;;1.17;;
6007;SDS011;3032;49.484;11.112;2022-07-10T11:25:03;1.33;;;1.00;;
6007;SDS011;3032;49.484;11.112;2022-07-10T11:27:34;0.98;;;0.73;;
6007;SDS011;3032;49.484;11.112;2022-07-10T11:30:02;2.72;;;1.17;;
6007;SDS011;3032;49.484;11.112;2022-07-10T11:32:28;2.03;;;1.10;;
6007;SDS011;3032;49.484;11.112;2022-07-10T11:34:54;5.47;;;1.10;;
6007;SDS011;3032;49.484;11.112;2022-07-10T11:37:20;3.20;;;1.38;;
6007;SDS011;3032;49.484;11.112;2022-07-10T11:39:47;2.03;;;0.95;;
6007;SDS011;3032;49.484;11.112;2022-07-10T11:42:13;1.37;;;0.97;;
6007;SDS011;3032;49.484;11.112;2022-07-10T11:44:38;1.80;;;1.37;;
6007;SDS011;3032;49.484;11.112;2022-07-10T11:47:04;1.93;;;1.30;;
6007;SDS011;3032;49.484;11.112;2022-07-10T11:49:31;1.58;;;0.90;;
6007;SDS011;3032;49.484;11.112;2022-07-10T11:52:01;1.40;;;0.77;;
6007;SDS011;3032;49.484;11.112;2022-07-10T11:54:28;1.98;;;0.90;;
6007;SDS011;3032;49.484;11.112;2022-07-10T11:56:54;2.10;;;0.73;;
6007;SDS011;3032;49.484;11.112;2022-07-10T11:59:27;1.63;;;1.20;;
6007;SDS011;3032;49.484;11.112;2022-07-10T12:01:54;3.50;;;1.40;;
6007;SDS011;3032;49.484;11.112;2022-07-10T12:04:22;1.98;;;0.90;;
6007;SDS011;3032;49.484;11.112;2022-07-10T12:06:52;2.67;;;1.08;;
6007;SDS011;3032;49.484;11.112;2022-07-10T12:09:22;0.90;;;0.90;;
6007;SDS011;3032;49.484;11.112;2022-07-10T12:12:04;0.80;;;0.80;;
6007;SDS011;3032;49.484;11.112;2022-07-10T12:14:32;1.08;;;0.90;;
6007;SDS011;3032;49.484;11.112;2022-07-10T12:16:59;2.35;;;1.23;;
6007;SDS011;3032;49.484;11.112;2022-07-10T12:21:53;0.90;;;0.60;;
6007;SDS011;3032;49.484;11.112;2022-07-10T12:24:19;0.82;;;0.77;;
6007;SDS011;3032;49.484;11.112;2022-07-10T12:26:45;1.50;;;0.77;;
6007;SDS011;3032;49.484;11.112;2022-07-10T12:29:18;0.75;;;0.70;;
6007;SDS011;3032;49.484;11.112;2022-07-10T12:31:46;0.77;;;0.65;;
6007;SDS011;3032;49.484;11.112;2022-07-10T12:34:13;1.50;;;0.70;;
6007;SDS011;3032;49.484;11.112;2022-07-10T12:39:10;1.13;;;0.80;;
6007;SDS011;3032;49.484;11.112;2022-07-10T12:41:52;1.30;;;1.20;;
6007;SDS011;3032;49.484;11.112;2022-07-10T12:44:29;1.95;;;0.77;;
6007;SDS011;3032;49.484;11.112;2022-07-10T12:47:07;1.45;;;1.00;;
6007;SDS011;3032;49.484;11.112;2022-07-10T12:49:55;1.55;;;0.80;;
6007;SDS011;3032;49.484;11.112;2022-07-10T13:00:13;1.35;;;1.00;;
6007;SDS011;3032;49.484;11.112;2022-07-10T13:02:40;0.93;;;0.88;;
6007;SDS011;3032;49.484;11.112;2022-07-10T13:05:06;1.47;;;0.80;;
6007;SDS011;3032;49.484;11.112;2022-07-10T13:07:32;2.00;;;0.80;;
6007;SDS011;3032;49.484;11.112;2022-07-10T13:10:00;1.88;;;0.90;;
6007;SDS011;3032;49.484;11.112;2022-07-10T13:12:26;1.10;;;0.85;;
6007;SDS011;3032;49.484;11.112;2022-07-10T13:14:52;1.27;;;1.00;;
6007;SDS011;3032;49.484;11.112;2022-07-10T13:17:18;2.10;;;1.00;;
6007;SDS011;3032;49.484;11.112;2022-07-10T13:19:43;1.00;;;0.90;;
6007;SDS011;3032;49.484;11.112;2022-07-10T13:22:09;3.20;;;0.73;;
6007;SDS011;3032;49.484;11.112;2022-07-10T13:24:35;2.23;;;0.83;;
6007;SDS011;3032;49.484;11.112;2022-07-10T13:27:00;1.87;;;1.00;;
6007;SDS011;3032;49.484;11.112;2022-07-10T13:29:26;2.20;;;0.77;;
6007;SDS011;3032;49.484;11.112;2022-07-10T13:31:51;0.90;;;0.90;;
6007;SDS011;3032;49.484;11.112;2022-07-10T13:34:17;2.63;;;0.90;;
6007;SDS011;3032;49.484;11.112;2022-07-10T13:36:42;1.30;;;0.90;;
6007;SDS011;3032;49.484;11.112;2022-07-10T13:39:08;1.27;;;0.77;;
6007;SDS011;3032;49.484;11.112;2022-07-10T13:41:34;3.50;;;0.90;;
6007;SDS011;3032;49.484;11.112;2022-07-10T13:43:59;2.50;;;0.70;;
6007;SDS011;3032;49.484;11.112;2022-07-10T13:46:26;3.55;;;1.02;;
6007;SDS011;3032;49.484;11.112;2022-07-10T13:48:52;0.68;;;0.68;;
6007;SDS011;3032;49.484;11.112;2022-07-10T13:51:18;3.83;;;0.90;;
6007;SDS011;3032;49.484;11.112;2022-07-10T13:53:43;1.10;;;0.90;;
6007;SDS011;3032;49.484;11.112;2022-07-10T13:56:09;1.00;;;0.70;;
6007;SDS011;3032;49.484;11.112;2022-07-10T13:58:35;1.67;;;0.80;;
6007;SDS011;3032;49.484;11.112;2022-07-10T14:01:02;0.98;;;0.70;;
6007;SDS011;3032;49.484;11.112;2022-07-10T14:03:29;1.75;;;0.90;;
6007;SDS011;3032;49.484;11.112;2022-07-10T14:05:56;2.65;;;1.10;;
6007;SDS011;3032;49.484;11.112;2022-07-10T14:08:22;0.95;;;0.80;;
6007;SDS011;3032;49.484;11.112;2022-07-10T14:10:48;0.93;;;0.82;;
6007;SDS011;3032;49.484;11.112;2022-07-10T14:13:14;1.57;;;1.10;;
6007;SDS011;3032;49.484;11.112;2022-07-10T14:15:39;1.03;;;0.90;;
6007;SDS011;3032;49.484;11.112;2022-07-10T14:18:06;2.60;;;0.90;;
6007;SDS011;3032;49.484;11.112;2022-07-10T14:20:31;3.70;;;1.10;;
6007;SDS011;3032;49.484;11.112;2022-07-10T14:23:17;1.08;;;0.98;;
6007;SDS011;3032;49.484;11.112;2022-07-10T14:25:43;2.42;;;1.00;;
6007;SDS011;3032;49.484;11.112;2022-07-10T14:28:09;1.30;;;1.00;;
6007;SDS011;3032;49.484;11.112;2022-07-10T14:30:34;2.10;;;1.27;;
6007;SDS011;3032;49.484;11.112;2022-07-10T14:33:00;1.00;;;0.83;;
6007;SDS011;3032;49.484;11.112;2022-07-10T14:35:26;1.93;;;0.80;;
6007;SDS011;3032;49.484;11.112;2022-07-10T14:37:51;1.70;;;0.83;;
6007;SDS011;3032;49.484;11.112;2022-07-10T14:40:17;0.90;;;0.90;;
6007;SDS011;3032;49.484;11.112;2022-07-10T14:42:43;2.00;;;1.20;;
6007;SDS011;3032;49.484;11.112;2022-07-10T14:45:08;1.63;;;0.90;;
6007;SDS011;3032;49.484;11.112;2022-07-10T14:47:35;1.80;;;0.90;;
6007;SDS011;3032;49.484;11.112;2022-07-10T14:50:00;1.73;;;1.03;;
6007;SDS011;3032;49.484;11.112;2022-07-10T14:52:26;1.10;;;1.00;;
6007;SDS011;3032;49.484;11.112;2022-07-10T14:54:54;1.10;;;1.00;;
6007;SDS011;3032;49.484;11.112;2022-07-10T14:57:19;1.37;;;0.93;;
6007;SDS011;3032;49.484;11.112;2022-07-10T14:59:45;1.47;;;0.90;;
6007;SDS011;3032;49.484;11.112;2022-07-10T15:02:10;2.50;;;1.00;;
6007;SDS011;3032;49.484;11.112;2022-07-10T15:04:37;0.88;;;0.80;;
6007;SDS011;3032;49.484;11.112;2022-07-10T15:07:02;1.50;;;0.80;;
6007;SDS011;3032;49.484;11.112;2022-07-10T15:09:28;1.37;;;0.83;;
6007;SDS011;3032;49.484;11.112;2022-07-10T15:11:54;8.30;;;1.10;;
6007;SDS011;3032;49.484;11.112;2022-07-10T15:14:20;2.20;;;1.07;;
6007;SDS011;3032;49.484;11.112;2022-07-10T15:16:46;1.10;;;1.00;;
6007;SDS011;3032;49.484;11.112;2022-07-10T15:19:11;2.03;;;1.10;;
6007;SDS011;3032;49.484;11.112;2022-07-10T15:21:37;2.93;;;1.20;;
6007;SDS011;3032;49.484;11.112;2022-07-10T15:24:03;1.20;;;1.07;;
6007;SDS011;3032;49.484;11.112;2022-07-10T15:26:29;1.40;;;1.30;;
6007;SDS011;3032;49.484;11.112;2022-07-10T15:28:54;1.70;;;1.57;;
6007;SDS011;3032;49.484;11.112;2022-07-10T15:31:22;2.15;;;1.40;;
6007;SDS011;3032;49.484;11.112;2022-07-10T15:33:47;4.10;;;2.40;;
6007;SDS011;3032;49.484;11.112;2022-07-10T15:36:13;1.77;;;1.30;;